Terminal Aerodrome Forecast
Issued by NWS

Home | Current Version | Previous Version | Text Only | Print | Product List | Glossary On
Versions: 1 2 3 4 5 6 7 8 9 10 11 12 13 14 15 16 17 18 19
000
FTUS43 KOAX 011700
TAFSNY
TAF
KSNY 011720Z 0118/0218 03011KT P6SM SCT120 BKN250
     FM012200 02013KT 6SM -SHRA VCTS BKN050 OVC080CB
     FM020200 34013KT 5SM -RA SCT007 OVC015
     FM020900 31008KT P6SM BKN015 OVC100=

USA.gov is the U.S. government's official web portal to all federal, state and local government web resources and services.